Danville, CA

11:46 AM PST on February 08, 2016 (GMT -0800)
APRSWXNET | | Change Station
CLOSE
Current Station
Personal Weather Station
Location: Danville, CA
Elevation: 816 ft
Nearby Weather Stations

Elev 816 ft 37.82 °N, 121.91 °W | Updated 2 days ago

Clear
Clear
69 °F
Feels Like 69 °F
N
8
Wind Variable Wind from NE
Gusts mph

Today
High -- | Low -- °F
--% Chance of Precip.
Yesterday
High -- | Low -- °F
Precip. -- in
Pressure 30.26 in
Visibility 10.0 miles
Clouds Clear
Dew Point 48 °F
Humidity 48%
Rainfall in
Snow Depth Not available.
7:05 AM 5:38 PM
New Moon, 0% visible
METAR KLVK 081853Z 00000KT 10SM CLR 17/09 A3026 RMK AO2 SLP247 T01720089 $
Pressure 30.26 in
Visibility 10.0 miles
Clouds Clear
Dew Point 48 °F
Humidity 48%
Rainfall in
Snow Depth Not available.
7:05 AM 5:38 PM
New Moon, 0% visible
METAR KLVK 081853Z 00000KT 10SM CLR 17/09 A3026 RMK AO2 SLP247 T01720089 $

10-Day Weather Forecast

Almanac

Astronomy

Feb. 08, 2016 Rise Set
Actual Time
Civil Twilight
Nautical Twilight
Astronomical Twilight
Moon
Length of Visible Light
Length of Day
Tomorrow will be .
, % of the Moon is Illuminated

Today's Extremes

State Highs State Lows

Community

WunderPhotos

Upload Photos

1,891,499 photos uploaded!

WunderBlog® & News

Nearby

Air Quality

  Air Quality AQ Index Pollutant
Not available.

Snow Depth

Station Depth Elevation

Earthquake Activity

City Distance Mag. Time & Date
Minimum magnitude displayed is 2.5.

Coastal Water Temperatures

Place Temperature

Stations

Nearby Weather Stations

Station Location Temp. Windchill Dew Point Humidity Wind Precip. Elev Updated Type
                   

Watches & Warnings

There are currently no watches in effect.